Time;durP1;ratioP1;P1;durP2;ratioP2;P2;SDS_P1;SDS_P2;PMS_P1;PMS_P2;Temp;Humidity;BMP_temperature;BMP_pressure;BME280_temperature;BME280_humidity;BME280_pressure;Samples;Min_cycle;Max_cycle;Signal;HPM_P1;HPM_P2
2022/02/23 00:00:56;;;;;;;;;;;;;;;;;;2096250;28;19924;-48
2022/02/23 00:01:57;;;;;;;;;;;;;;;;;;2095577;28;20016;-49
2022/02/23 00:02:58;;;;;;;;;;;;;;;;;;2097852;28;19928;-47
2022/02/23 00:04:00;;;;;;;;;;;;;;;;;;2095239;28;19925;-50
2022/02/23 00:05:00;;;;;;;;;;;;;;;;;;2096514;28;20313;-48
2022/02/23 00:06:01;;;;;;;;;;;;;;;;;;2097176;28;20338;-48
2022/02/23 00:07:02;;;;;;;;;;;;;;;;;;2094629;28;20036;-44
2022/02/23 00:08:03;;;;;;;;;;;;;;;;;;2097247;28;20396;-43
2022/02/23 00:09:04;;;;;;;;;;;;;;;;;;2097605;28;19940;-43
2022/02/23 00:10:05;;;;;;;;;;;;;;;;;;2095308;28;20392;-44
2022/02/23 00:11:06;;;;;;;;;;;;;;;;;;2097502;28;19932;-44
2022/02/23 00:12:07;;;;;;;;;;;;;;;;;;2097649;28;19924;-44
2022/02/23 00:13:07;;;;;;;;;;;;;;;;;;2095335;28;19924;-44
2022/02/23 00:14:08;;;;;;;;;;;;;;;;;;2097827;28;19925;-50
2022/02/23 00:15:09;;;;;;;;;;;;;;;;;;2097031;28;19942;-50
2022/02/23 00:16:10;;;;;;;;;;;;;;;;;;2095037;28;20388;-49
2022/02/23 00:17:11;;;;;;;;;;;;;;;;;;2097519;28;20434;-51
2022/02/23 00:18:12;;;;;;;;;;;;;;;;;;2098255;28;19924;-50
2022/02/23 00:19:13;;;;;;;;;;;;;;;;;;2097706;28;19928;-44
2022/02/23 00:20:16;;;;;;;;;;;;;;;;;;2099305;28;19931;-49
2022/02/23 00:21:17;;;;;;;;;;;;;;;;;;2096706;28;20381;-49
2022/02/23 00:22:18;;;;;;;;;;;;;;;;;;2098923;28;20008;-50
2022/02/23 00:23:19;;;;;;;;;;;;;;;;;;2098894;28;20289;-49
2022/02/23 00:24:20;;;;;;;;;;;;;;;;;;2096860;28;19970;-49
2022/02/23 00:25:21;;;;;;;;;;;;;;;;;;2099012;28;19993;-48
2022/02/23 00:26:22;;;;;;;;;;;;;;;;;;2098147;28;19924;-52
2022/02/23 00:27:23;;;;;;;;;;;;;;;;;;2095160;28;19925;-51
2022/02/23 00:28:24;;;;;;;;;;;;;;;;;;2099004;28;19928;-50
2022/02/23 00:29:25;;;;;;;;;;;;;;;;;;2098218;28;19924;-52
2022/02/23 00:30:25;;;;;;;;;;;;;;;;;;2096206;28;19924;-51
2022/02/23 00:31:27;;;;;;;;;;;;;;;;;;2098938;28;19925;-49
2022/02/23 00:32:27;;;;;;;;;;;;;;;;;;2098010;28;20372;-53
2022/02/23 00:33:28;;;;;;;;;;;;;;;;;;2097636;28;20081;-51
2022/02/23 00:34:29;;;;;;;;;;;;;;;;;;2098897;28;19932;-50
2022/02/23 00:35:30;;;;;;;;;;;;;;;;;;2095584;28;20143;-50
2022/02/23 00:36:31;;;;;;;;;;;;;;;;;;2090538;28;19929;-51
2022/02/23 00:37:32;;;;;;;;;;;;;;;;;;2090529;28;20382;-51
2022/02/23 00:38:33;;;;;;;;;;;;;;;;;;2094683;28;20007;-53
2022/02/23 00:39:34;;;;;;;;;;;;;;;;;;2098966;28;20073;-49
2022/02/23 00:40:35;;;;;;;;;;;;;;;;;;2098425;28;19932;-50
2022/02/23 00:41:36;;;;;;;;;;;;;;;;;;2096658;28;19958;-42
2022/02/23 00:42:37;;;;;;;;;;;;;;;;;;2099003;28;19976;-44
2022/02/23 00:43:38;;;;;;;;;;;;;;;;;;2098109;28;20024;-45
2022/02/23 00:44:39;;;;;;;;;;;;;;;;;;2097599;28;19982;-45
2022/02/23 00:45:40;;;;;;;;;;;;;;;;;;2099043;28;19994;-50
2022/02/23 00:46:40;;;;;;;;;;;;;;;;;;2096571;28;20388;-49
2022/02/23 00:47:41;;;;;;;;;;;;;;;;;;2098689;28;19970;-49
2022/02/23 00:48:42;;;;;;;;;;;;;;;;;;2098798;28;19932;-50
2022/02/23 00:49:43;;;;;;;;;;;;;;;;;;2096633;28;19986;-48
2022/02/23 00:50:44;;;;;;;;;;;;;;;;;;2098351;28;20461;-43
2022/02/23 00:51:45;;;;;;;;;;;;;;;;;;2098753;28;19959;-43
2022/02/23 00:52:46;;;;;;;;;;;;;;;;;;2096319;28;20031;-43
2022/02/23 00:53:47;;;;;;;;;;;;;;;;;;2098842;28;19924;-43
2022/02/23 00:54:48;;;;;;;;;;;;;;;;;;2098531;28;20436;-43
2022/02/23 00:55:49;;;;;;;;;;;;;;;;;;2097193;28;19924;-48
2022/02/23 00:56:49;;;;;;;;;;;;;;;;;;2098892;28;19970;-50
2022/02/23 00:57:51;;;;;;;;;;;;;;;;;;2096575;28;19933;-50
2022/02/23 00:58:51;;;;;;;;;;;;;;;;;;2097525;28;20015;-47
2022/02/23 00:59:52;;;;;;;;;;;;;;;;;;2098888;28;19932;-50
2022/02/23 01:00:53;;;;;;;;;;;;;;;;;;2096574;28;20408;-51
2022/02/23 01:01:57;;;;;;;;;;;;;;;;;;2098690;28;19925;-49
2022/02/23 01:02:58;;;;;;;;;;;;;;;;;;2098647;28;19960;-48
2022/02/23 01:03:59;;;;;;;;;;;;;;;;;;2095272;28;20310;-47
2022/02/23 01:05:00;;;;;;;;;;;;;;;;;;2098769;28;19928;-48
2022/02/23 01:06:00;;;;;;;;;;;;;;;;;;2098208;28;19961;-51
2022/02/23 01:07:01;;;;;;;;;;;;;;;;;;2096897;28;19932;-52
2022/02/23 01:08:02;;;;;;;;;;;;;;;;;;2098630;28;19924;-48
2022/02/23 01:09:03;;;;;;;;;;;;;;;;;;2098078;28;19976;-48
2022/02/23 01:10:05;;;;;;;;;;;;;;;;;;2096053;28;19935;-50
2022/02/23 01:11:06;;;;;;;;;;;;;;;;;;2098778;28;19977;-49
2022/02/23 01:12:07;;;;;;;;;;;;;;;;;;2096463;28;20054;-48
2022/02/23 01:13:08;;;;;;;;;;;;;;;;;;2098735;28;19924;-50
2022/02/23 01:14:09;;;;;;;;;;;;;;;;;;2098760;28;20384;-48
2022/02/23 01:15:10;;;;;;;;;;;;;;;;;;2095107;28;21477;-43
2022/02/23 01:16:10;;;;;;;;;;;;;;;;;;2098436;28;19924;-44
2022/02/23 01:17:11;;;;;;;;;;;;;;;;;;2098523;28;20412;-44
2022/02/23 01:18:13;;;;;;;;;;;;;;;;;;2096363;28;19924;-43
2022/02/23 01:19:14;;;;;;;;;;;;;;;;;;2098604;28;20007;-43
2022/02/23 01:20:15;;;;;;;;;;;;;;;;;;2098298;28;19928;-43
2022/02/23 01:21:15;;;;;;;;;;;;;;;;;;2096863;28;19960;-44
2022/02/23 01:22:16;;;;;;;;;;;;;;;;;;2098619;28;20331;-43
2022/02/23 01:23:17;;;;;;;;;;;;;;;;;;2096604;28;19924;-45
2022/02/23 01:24:18;;;;;;;;;;;;;;;;;;2096147;28;19925;-44
2022/02/23 01:25:19;;;;;;;;;;;;;;;;;;2098523;28;19931;-43
2022/02/23 01:26:20;;;;;;;;;;;;;;;;;;2094729;28;20268;-43
2022/02/23 01:27:20;;;;;;;;;;;;;;;;;;2097876;28;19978;-44
2022/02/23 01:28:21;;;;;;;;;;;;;;;;;;2097870;28;19932;-44
2022/02/23 01:29:22;;;;;;;;;;;;;;;;;;2096225;28;20006;-44
2022/02/23 01:30:23;;;;;;;;;;;;;;;;;;2098737;28;20313;-44
2022/02/23 01:31:24;;;;;;;;;;;;;;;;;;2098789;28;19979;-50
2022/02/23 01:32:25;;;;;;;;;;;;;;;;;;2094265;28;19928;-49
2022/02/23 01:33:26;;;;;;;;;;;;;;;;;;2090492;28;19925;-44
2022/02/23 01:34:27;;;;;;;;;;;;;;;;;;2089929;28;19960;-44
2022/02/23 01:35:28;;;;;;;;;;;;;;;;;;2096375;28;19970;-44
2022/02/23 01:36:28;;;;;;;;;;;;;;;;;;2098633;28;20401;-49
2022/02/23 01:37:29;;;;;;;;;;;;;;;;;;2096706;28;19971;-50
2022/02/23 01:38:30;;;;;;;;;;;;;;;;;;2096898;28;19924;-49
2022/02/23 01:39:31;;;;;;;;;;;;;;;;;;2097979;28;19924;-49
2022/02/23 01:40:32;;;;;;;;;;;;;;;;;;2094310;28;20016;-44
2022/02/23 01:41:33;;;;;;;;;;;;;;;;;;2097986;28;20024;-43
2022/02/23 01:42:34;;;;;;;;;;;;;;;;;;2098572;28;20467;-43
2022/02/23 01:43:35;;;;;;;;;;;;;;;;;;2094616;28;19935;-44
2022/02/23 01:44:35;;;;;;;;;;;;;;;;;;2090275;28;19929;-43
2022/02/23 01:45:36;;;;;;;;;;;;;;;;;;2090445;28;19925;-42
2022/02/23 01:46:39;;;;;;;;;;;;;;;;;;2096069;28;19932;-43
2022/02/23 01:47:40;;;;;;;;;;;;;;;;;;2098508;28;19968;-44
2022/02/23 01:48:45;;;;;;;;;;;;;;;;;;2097782;28;19928;-44
2022/02/23 01:49:46;;;;;;;;;;;;;;;;;;2094400;28;19924;-49
2022/02/23 01:50:47;;;;;;;;;;;;;;;;;;2098337;28;19976;-48
2022/02/23 01:51:48;;;;;;;;;;;;;;;;;;2096347;28;20285;-47
2022/02/23 01:52:49;;;;;;;;;;;;;;;;;;2098258;28;20050;-48
2022/02/23 01:53:50;;;;;;;;;;;;;;;;;;2098336;28;19989;-51
2022/02/23 01:54:51;;;;;;;;;;;;;;;;;;2096388;28;19982;-48
2022/02/23 01:55:52;;;;;;;;;;;;;;;;;;2098211;28;20333;-48
2022/02/23 01:56:52;;;;;;;;;;;;;;;;;;2098241;28;20433;-48
2022/02/23 01:57:53;;;;;;;;;;;;;;;;;;2094963;28;19924;-50
2022/02/23 01:58:55;;;;;;;;;;;;;;;;;;2098700;28;19964;-43
2022/02/23 01:59:55;;;;;;;;;;;;;;;;;;2097189;28;20450;-45
2022/02/23 02:00:57;;;;;;;;;;;;;;;;;;2094769;28;19924;-44
2022/02/23 02:01:57;;;;;;;;;;;;;;;;;;2098557;28;19982;-45
2022/02/23 02:02:58;;;;;;;;;;;;;;;;;;2097415;28;19936;-45
2022/02/23 02:03:59;;;;;;;;;;;;;;;;;;2097238;28;20381;-44
2022/02/23 02:05:00;;;;;;;;;;;;;;;;;;2098376;28;20015;-44
2022/02/23 02:06:01;;;;;;;;;;;;;;;;;;2094400;28;19933;-44
2022/02/23 02:07:02;;;;;;;;;;;;;;;;;;2097801;28;19932;-45
2022/02/23 02:08:02;;;;;;;;;;;;;;;;;;2098531;28;19926;-46
2022/02/23 02:09:03;;;;;;;;;;;;;;;;;;2094799;28;19925;-45
2022/02/23 02:10:04;;;;;;;;;;;;;;;;;;2098295;28;20293;-46
2022/02/23 02:11:05;;;;;;;;;;;;;;;;;;2098296;28;20011;-49
2022/02/23 02:12:06;;;;;;;;;;;;;;;;;;2094483;28;20409;-46
2022/02/23 02:13:07;;;;;;;;;;;;;;;;;;2098409;28;19928;-46
2022/02/23 02:14:08;;;;;;;;;;;;;;;;;;2097854;28;19928;-46
2022/02/23 02:15:09;;;;;;;;;;;;;;;;;;2096520;28;19925;-47
2022/02/23 02:16:10;;;;;;;;;;;;;;;;;;2098245;28;20373;-47
2022/02/23 02:17:10;;;;;;;;;;;;;;;;;;2097460;28;19939;-49
2022/02/23 02:18:11;;;;;;;;;;;;;;;;;;2096968;28;19960;-47
2022/02/23 02:19:12;;;;;;;;;;;;;;;;;;2098303;28;19969;-46
2022/02/23 02:20:13;;;;;;;;;;;;;;;;;;2096178;28;19975;-47
2022/02/23 02:21:13;;;;;;;;;;;;;;;;;;2097873;28;19928;-49
2022/02/23 02:22:14;;;;;;;;;;;;;;;;;;2098646;28;19928;-47
2022/02/23 02:23:15;;;;;;;;;;;;;;;;;;2093515;28;19971;-46
2022/02/23 02:24:16;;;;;;;;;;;;;;;;;;2098095;28;19925;-48
2022/02/23 02:25:17;;;;;;;;;;;;;;;;;;2098461;28;19924;-56
2022/02/23 02:26:18;;;;;;;;;;;;;;;;;;2096074;28;19925;-55
2022/02/23 02:27:19;;;;;;;;;;;;;;;;;;2098117;28;20014;-58
2022/02/23 02:28:20;;;;;;;;;;;;;;;;;;2097779;28;19944;-55
2022/02/23 02:29:20;;;;;;;;;;;;;;;;;;2095249;28;20433;-46
2022/02/23 02:30:21;;;;;;;;;;;;;;;;;;2098107;28;19924;-46
2022/02/23 02:31:22;;;;;;;;;;;;;;;;;;2097429;28;19925;-55
2022/02/23 02:32:24;;;;;;;;;;;;;;;;;;2096682;28;20019;-55
2022/02/23 02:33:25;;;;;;;;;;;;;;;;;;2098070;28;19924;-57
2022/02/23 02:34:26;;;;;;;;;;;;;;;;;;2096829;28;19931;-57
2022/02/23 02:35:27;;;;;;;;;;;;;;;;;;2097258;28;20437;-55
2022/02/23 02:36:28;;;;;;;;;;;;;;;;;;2098168;28;20407;-55
2022/02/23 02:37:29;;;;;;;;;;;;;;;;;;2096024;28;20362;-55
2022/02/23 02:38:30;;;;;;;;;;;;;;;;;;2098157;28;19966;-55
2022/02/23 02:39:31;;;;;;;;;;;;;;;;;;2097601;28;20065;-57
2022/02/23 02:40:32;;;;;;;;;;;;;;;;;;2095465;28;19929;-54
2022/02/23 02:41:33;;;;;;;;;;;;;;;;;;2098138;28;20015;-54
2022/02/23 02:42:34;;;;;;;;;;;;;;;;;;2097079;28;19928;-45
2022/02/23 02:43:35;;;;;;;;;;;;;;;;;;2095923;28;20399;-45
2022/02/23 02:44:36;;;;;;;;;;;;;;;;;;2097922;28;19978;-49
2022/02/23 02:45:37;;;;;;;;;;;;;;;;;;2096067;28;19924;-46
2022/02/23 02:46:38;;;;;;;;;;;;;;;;;;2097758;28;19928;-46
2022/02/23 02:47:38;;;;;;;;;;;;;;;;;;2097968;28;20389;-46
2022/02/23 02:48:40;;;;;;;;;;;;;;;;;;2096568;28;20354;-46
2022/02/23 02:49:41;;;;;;;;;;;;;;;;;;2089639;28;19978;-45
2022/02/23 02:50:42;;;;;;;;;;;;;;;;;;2089754;28;19928;-45
2022/02/23 02:51:43;;;;;;;;;;;;;;;;;;2093884;28;19925;-55
2022/02/23 02:52:44;;;;;;;;;;;;;;;;;;2098031;28;19928;-55
2022/02/23 02:53:45;;;;;;;;;;;;;;;;;;2096859;28;20532;-57
2022/02/23 02:54:46;;;;;;;;;;;;;;;;;;2094579;28;20072;-56
2022/02/23 02:55:46;;;;;;;;;;;;;;;;;;2098272;28;20007;-47
2022/02/23 02:56:47;;;;;;;;;;;;;;;;;;2096217;28;20011;-45
2022/02/23 02:57:48;;;;;;;;;;;;;;;;;;2096428;28;19924;-45
2022/02/23 02:58:52;;;;;;;;;;;;;;;;;;2098050;28;19925;-45
2022/02/23 02:59:53;;;;;;;;;;;;;;;;;;2093938;28;20090;-57
2022/02/23 03:00:53;;;;;;;;;;;;;;;;;;2089710;28;19929;-45
2022/02/23 03:01:54;;;;;;;;;;;;;;;;;;2089430;28;19951;-46
2022/02/23 03:02:55;;;;;;;;;;;;;;;;;;2094921;28;20155;-45
2022/02/23 03:03:56;;;;;;;;;;;;;;;;;;2097895;28;19931;-45
2022/02/23 03:04:57;;;;;;;;;;;;;;;;;;2096088;28;19925;-45
2022/02/23 03:06:00;;;;;;;;;;;;;;;;;;2095938;28;19932;-45
2022/02/23 03:07:01;;;;;;;;;;;;;;;;;;2097945;28;19932;-45
2022/02/23 03:08:02;;;;;;;;;;;;;;;;;;2096114;28;19967;-48
2022/02/23 03:09:03;;;;;;;;;;;;;;;;;;2097905;28;20023;-48
2022/02/23 03:10:04;;;;;;;;;;;;;;;;;;2098306;28;20341;-54
2022/02/23 03:11:05;;;;;;;;;;;;;;;;;;2095878;28;20335;-55
2022/02/23 03:12:06;;;;;;;;;;;;;;;;;;2097638;28;19931;-56
2022/02/23 03:13:07;;;;;;;;;;;;;;;;;;2097790;28;19932;-55
2022/02/23 03:14:07;;;;;;;;;;;;;;;;;;2095749;28;19924;-55
2022/02/23 03:15:08;;;;;;;;;;;;;;;;;;2098007;28;20412;-46
2022/02/23 03:16:09;;;;;;;;;;;;;;;;;;2096560;28;19924;-46
2022/02/23 03:17:10;;;;;;;;;;;;;;;;;;2094413;28;19970;-45
2022/02/23 03:18:11;;;;;;;;;;;;;;;;;;2098116;28;20062;-45
2022/02/23 03:19:13;;;;;;;;;;;;;;;;;;2097050;28;19990;-45
2022/02/23 03:20:14;;;;;;;;;;;;;;;;;;2096662;28;19947;-46
2022/02/23 03:21:15;;;;;;;;;;;;;;;;;;2097830;28;19928;-46
2022/02/23 03:22:16;;;;;;;;;;;;;;;;;;2096804;28;19924;-46
2022/02/23 03:23:17;;;;;;;;;;;;;;;;;;2089882;28;19932;-56
2022/02/23 03:24:18;;;;;;;;;;;;;;;;;;2089488;28;20016;-54
2022/02/23 03:25:19;;;;;;;;;;;;;;;;;;2093365;28;19931;-54
2022/02/23 03:26:20;;;;;;;;;;;;;;;;;;2098041;28;19925;-56
2022/02/23 03:27:20;;;;;;;;;;;;;;;;;;2097621;28;19929;-55
2022/02/23 03:28:21;;;;;;;;;;;;;;;;;;2095558;28;20032;-53
2022/02/23 03:29:22;;;;;;;;;;;;;;;;;;2097792;28;20341;-54
2022/02/23 03:30:23;;;;;;;;;;;;;;;;;;2097339;28;19956;-53
2022/02/23 03:31:24;;;;;;;;;;;;;;;;;;2095858;28;19982;-53
2022/02/23 03:32:25;;;;;;;;;;;;;;;;;;2097687;28;19936;-54
2022/02/23 03:33:26;;;;;;;;;;;;;;;;;;2096717;28;20515;-54
2022/02/23 03:34:27;;;;;;;;;;;;;;;;;;2096006;28;19924;-53
2022/02/23 03:35:28;;;;;;;;;;;;;;;;;;2097724;28;20289;-52
2022/02/23 03:36:28;;;;;;;;;;;;;;;;;;2095669;28;19924;-55
2022/02/23 03:37:30;;;;;;;;;;;;;;;;;;2097610;28;20368;-54
2022/02/23 03:38:30;;;;;;;;;;;;;;;;;;2098083;28;19983;-53
2022/02/23 03:39:32;;;;;;;;;;;;;;;;;;2095765;28;19929;-52
2022/02/23 03:40:33;;;;;;;;;;;;;;;;;;2097812;28;19974;-55
2022/02/23 03:41:34;;;;;;;;;;;;;;;;;;2097697;28;19932;-53
2022/02/23 03:42:37;;;;;;;;;;;;;;;;;;2095007;28;19933;-55
2022/02/23 03:43:38;;;;;;;;;;;;;;;;;;2097848;28;19929;-55
2022/02/23 03:44:39;;;;;;;;;;;;;;;;;;2095255;28;19924;-55
2022/02/23 03:45:40;;;;;;;;;;;;;;;;;;2095861;28;19932;-54
2022/02/23 03:46:41;;;;;;;;;;;;;;;;;;2097491;28;19931;-55
2022/02/23 03:47:42;;;;;;;;;;;;;;;;;;2096517;28;19928;-45
2022/02/23 03:48:43;;;;;;;;;;;;;;;;;;2096336;28;19925;-45
2022/02/23 03:49:44;;;;;;;;;;;;;;;;;;2097809;28;20382;-53
2022/02/23 03:50:44;;;;;;;;;;;;;;;;;;2092962;28;19924;-52
2022/02/23 03:51:45;;;;;;;;;;;;;;;;;;2098355;28;19932;-54
2022/02/23 03:52:46;;;;;;;;;;;;;;;;;;2099236;28;19924;-54
2022/02/23 03:53:47;;;;;;;;;;;;;;;;;;2095625;28;19990;-55
2022/02/23 03:54:48;;;;;;;;;;;;;;;;;;2099291;28;19925;-53
2022/02/23 03:55:49;;;;;;;;;;;;;;;;;;2098271;28;20019;-48
2022/02/23 03:56:49;;;;;;;;;;;;;;;;;;2096934;28;19925;-45
2022/02/23 03:57:50;;;;;;;;;;;;;;;;;;2099445;28;20392;-47
2022/02/23 03:58:51;;;;;;;;;;;;;;;;;;2097152;28;19928;-51
2022/02/23 03:59:52;;;;;;;;;;;;;;;;;;2097503;28;19924;-53
2022/02/23 04:00:53;;;;;;;;;;;;;;;;;;2099124;28;20277;-53
2022/02/23 04:01:54;;;;;;;;;;;;;;;;;;2097042;28;20301;-53
2022/02/23 04:02:55;;;;;;;;;;;;;;;;;;2099080;28;19932;-45
2022/02/23 04:03:55;;;;;;;;;;;;;;;;;;2099167;28;20346;-45
2022/02/23 04:04:56;;;;;;;;;;;;;;;;;;2095916;28;20365;-53
2022/02/23 04:05:57;;;;;;;;;;;;;;;;;;2098998;28;19924;-53
2022/02/23 04:06:58;;;;;;;;;;;;;;;;;;2099044;28;19931;-50
2022/02/23 04:07:59;;;;;;;;;;;;;;;;;;2097034;28;20015;-50
2022/02/23 04:09:00;;;;;;;;;;;;;;;;;;2098985;28;20147;-53
2022/02/23 04:10:01;;;;;;;;;;;;;;;;;;2098394;28;20123;-53
2022/02/23 04:11:02;;;;;;;;;;;;;;;;;;2097631;28;19974;-50
2022/02/23 04:12:03;;;;;;;;;;;;;;;;;;2099436;28;20378;-45
2022/02/23 04:13:03;;;;;;;;;;;;;;;;;;2098195;28;19929;-46
2022/02/23 04:14:04;;;;;;;;;;;;;;;;;;2097832;28;20010;-52
2022/02/23 04:15:05;;;;;;;;;;;;;;;;;;2098964;28;19936;-52
2022/02/23 04:16:06;;;;;;;;;;;;;;;;;;2098082;28;19971;-51
2022/02/23 04:17:08;;;;;;;;;;;;;;;;;;2090713;28;19932;-47
2022/02/23 04:18:09;;;;;;;;;;;;;;;;;;2090718;28;20309;-46
2022/02/23 04:19:10;;;;;;;;;;;;;;;;;;2093413;28;19924;-49
2022/02/23 04:20:11;;;;;;;;;;;;;;;;;;2098903;28;19925;-46
2022/02/23 04:21:12;;;;;;;;;;;;;;;;;;2099489;28;20377;-51
2022/02/23 04:22:13;;;;;;;;;;;;;;;;;;2095517;28;19976;-53
2022/02/23 04:23:14;;;;;;;;;;;;;;;;;;2098908;28;19979;-52
2022/02/23 04:24:15;;;;;;;;;;;;;;;;;;2098162;28;19929;-54
2022/02/23 04:25:16;;;;;;;;;;;;;;;;;;2096510;28;19932;-53
2022/02/23 04:26:17;;;;;;;;;;;;;;;;;;2098778;28;20019;-52
2022/02/23 04:27:18;;;;;;;;;;;;;;;;;;2097584;28;20003;-54
2022/02/23 04:28:20;;;;;;;;;;;;;;;;;;2097657;28;19955;-45
2022/02/23 04:29:23;;;;;;;;;;;;;;;;;;2099029;28;19972;-54
2022/02/23 04:30:24;;;;;;;;;;;;;;;;;;2097341;28;20366;-52
2022/02/23 04:31:25;;;;;;;;;;;;;;;;;;2090472;28;20160;-51
2022/02/23 04:32:26;;;;;;;;;;;;;;;;;;2090516;28;20020;-53
2022/02/23 04:33:27;;;;;;;;;;;;;;;;;;2096122;28;20075;-53
2022/02/23 04:34:28;;;;;;;;;;;;;;;;;;2099289;28;19924;-54
2022/02/23 04:35:29;;;;;;;;;;;;;;;;;;2098086;28;19986;-52
2022/02/23 04:36:30;;;;;;;;;;;;;;;;;;2096297;28;19971;-52
2022/02/23 04:37:31;;;;;;;;;;;;;;;;;;2098812;28;19924;-53
2022/02/23 04:38:32;;;;;;;;;;;;;;;;;;2098162;28;19959;-54
2022/02/23 04:39:33;;;;;;;;;;;;;;;;;;2092621;28;19925;-54
2022/02/23 04:40:34;;;;;;;;;;;;;;;;;;2090619;28;19931;-51
2022/02/23 04:41:35;;;;;;;;;;;;;;;;;;2092636;28;19955;-51
2022/02/23 04:42:36;;;;;;;;;;;;;;;;;;2098703;28;19928;-51
2022/02/23 04:43:36;;;;;;;;;;;;;;;;;;2098985;28;20335;-51
2022/02/23 04:44:37;;;;;;;;;;;;;;;;;;2096910;28;20254;-52
2022/02/23 04:45:38;;;;;;;;;;;;;;;;;;2099131;28;19924;-53
2022/02/23 04:46:39;;;;;;;;;;;;;;;;;;2098723;28;22771;-51
2022/02/23 04:47:40;;;;;;;;;;;;;;;;;;2096639;28;20370;-51
2022/02/23 04:48:41;;;;;;;;;;;;;;;;;;2099015;28;19966;-54
2022/02/23 04:49:42;;;;;;;;;;;;;;;;;;2098413;28;20011;-51
2022/02/23 04:50:43;;;;;;;;;;;;;;;;;;2097002;28;19924;-53
2022/02/23 04:51:43;;;;;;;;;;;;;;;;;;2098996;28;19925;-44
2022/02/23 04:52:44;;;;;;;;;;;;;;;;;;2098005;28;19925;-44
2022/02/23 04:53:45;;;;;;;;;;;;;;;;;;2097383;28;20215;-46
2022/02/23 04:54:46;;;;;;;;;;;;;;;;;;2099072;28;20011;-44
2022/02/23 04:55:47;;;;;;;;;;;;;;;;;;2096650;28;19931;-45
2022/02/23 04:56:48;;;;;;;;;;;;;;;;;;2098567;28;19932;-45
2022/02/23 04:57:50;;;;;;;;;;;;;;;;;;2098915;28;20468;-45
2022/02/23 04:58:50;;;;;;;;;;;;;;;;;;2094122;28;20015;-52
2022/02/23 04:59:51;;;;;;;;;;;;;;;;;;2098527;28;20288;-44
2022/02/23 05:00:52;;;;;;;;;;;;;;;;;;2098639;28;19955;-45
2022/02/23 05:01:56;;;;;;;;;;;;;;;;;;2095583;28;20063;-54
2022/02/23 05:02:57;;;;;;;;;;;;;;;;;;2097935;28;20026;-44
2022/02/23 05:03:58;;;;;;;;;;;;;;;;;;2097811;28;20393;-54
2022/02/23 05:04:59;;;;;;;;;;;;;;;;;;2097181;28;20022;-54
2022/02/23 05:05:59;;;;;;;;;;;;;;;;;;2098650;28;19932;-54
2022/02/23 05:07:00;;;;;;;;;;;;;;;;;;2095541;28;20418;-54
2022/02/23 05:08:01;;;;;;;;;;;;;;;;;;2097816;28;19928;-51
2022/02/23 05:09:03;;;;;;;;;;;;;;;;;;2099007;28;19924;-54
2022/02/23 05:10:04;;;;;;;;;;;;;;;;;;2096556;28;19933;-51
2022/02/23 05:11:05;;;;;;;;;;;;;;;;;;2098692;28;20361;-54
2022/02/23 05:12:05;;;;;;;;;;;;;;;;;;2098332;28;19928;-53
2022/02/23 05:13:06;;;;;;;;;;;;;;;;;;2096436;28;19959;-51
2022/02/23 05:14:07;;;;;;;;;;;;;;;;;;2098976;28;20360;-51
2022/02/23 05:15:08;;;;;;;;;;;;;;;;;;2098321;28;19925;-50
2022/02/23 05:16:09;;;;;;;;;;;;;;;;;;2096880;28;20007;-54
2022/02/23 05:17:11;;;;;;;;;;;;;;;;;;2098637;28;19931;-51
2022/02/23 05:18:12;;;;;;;;;;;;;;;;;;2097809;28;19967;-50
2022/02/23 05:19:13;;;;;;;;;;;;;;;;;;2096288;28;19924;-53
2022/02/23 05:20:14;;;;;;;;;;;;;;;;;;2098302;28;20393;-45
2022/02/23 05:21:15;;;;;;;;;;;;;;;;;;2095093;28;20023;-44
2022/02/23 05:22:16;;;;;;;;;;;;;;;;;;2098832;28;19932;-44
2022/02/23 05:23:17;;;;;;;;;;;;;;;;;;2098562;28;20023;-43
2022/02/23 05:24:18;;;;;;;;;;;;;;;;;;2093720;28;19924;-44
2022/02/23 05:25:19;;;;;;;;;;;;;;;;;;2098476;28;19931;-43
2022/02/23 05:26:20;;;;;;;;;;;;;;;;;;2097790;28;20026;-44
2022/02/23 05:27:21;;;;;;;;;;;;;;;;;;2097085;28;19932;-44
2022/02/23 05:28:21;;;;;;;;;;;;;;;;;;2098698;28;19960;-43
2022/02/23 05:29:23;;;;;;;;;;;;;;;;;;2097051;28;19932;-43
2022/02/23 05:30:24;;;;;;;;;;;;;;;;;;2097049;28;19939;-44
2022/02/23 05:31:25;;;;;;;;;;;;;;;;;;2098755;28;19928;-51
2022/02/23 05:32:25;;;;;;;;;;;;;;;;;;2095050;28;19924;-52
2022/02/23 05:33:26;;;;;;;;;;;;;;;;;;2098335;28;19982;-54
2022/02/23 05:34:29;;;;;;;;;;;;;;;;;;2098970;28;19932;-54
2022/02/23 05:35:30;;;;;;;;;;;;;;;;;;2096501;28;19924;-43
2022/02/23 05:36:31;;;;;;;;;;;;;;;;;;2098409;28;20331;-43
2022/02/23 05:37:32;;;;;;;;;;;;;;;;;;2098188;28;19925;-43
2022/02/23 05:38:33;;;;;;;;;;;;;;;;;;2096695;28;19971;-53
2022/02/23 05:39:34;;;;;;;;;;;;;;;;;;2098322;28;19928;-53
2022/02/23 05:40:35;;;;;;;;;;;;;;;;;;2096534;28;20015;-53
2022/02/23 05:41:36;;;;;;;;;;;;;;;;;;2092050;28;19932;-52
2022/02/23 05:42:37;;;;;;;;;;;;;;;;;;2090144;28;20043;-50
2022/02/23 05:43:38;;;;;;;;;;;;;;;;;;2094566;28;20025;-43
2022/02/23 05:44:39;;;;;;;;;;;;;;;;;;2090917;28;20337;-52
2022/02/23 05:45:40;;;;;;;;;;;;;;;;;;2090363;28;19931;-51
2022/02/23 05:46:43;;;;;;;;;;;;;;;;;;2094251;28;19929;-51
2022/02/23 05:47:44;;;;;;;;;;;;;;;;;;2098380;28;19925;-52
2022/02/23 05:48:45;;;;;;;;;;;;;;;;;;2098683;28;19955;-52
2022/02/23 05:49:46;;;;;;;;;;;;;;;;;;2094833;28;19978;-51
2022/02/23 05:50:47;;;;;;;;;;;;;;;;;;2098398;28;20023;-50
2022/02/23 05:51:48;;;;;;;;;;;;;;;;;;2097152;28;19943;-43
2022/02/23 05:52:48;;;;;;;;;;;;;;;;;;2095420;28;19967;-43
2022/02/23 05:53:49;;;;;;;;;;;;;;;;;;2098653;28;19967;-43
2022/02/23 05:54:51;;;;;;;;;;;;;;;;;;2096943;28;19929;-42
2022/02/23 05:55:51;;;;;;;;;;;;;;;;;;2096812;28;19930;-43
2022/02/23 05:56:54;;;;;;;;;;;;;;;;;;2098611;28;19968;-43
2022/02/23 05:57:55;;;;;;;;;;;;;;;;;;2096861;28;19924;-43
2022/02/23 05:58:57;;;;;;;;;;;;;;;;;;2090009;28;19931;-42
2022/02/23 05:59:58;;;;;;;;;;;;;;;;;;2090409;28;19963;-42
2022/02/23 06:00:59;;;;;;;;;;;;;;;;;;2094450;28;19935;-43
2022/02/23 06:02:00;;;;;;;;;;;;;;;;;;2098503;28;19935;-50
2022/02/23 06:03:01;;;;;;;;;;;;;;;;;;2097303;28;20015;-42
2022/02/23 06:04:01;;;;;;;;;;;;;;;;;;2097609;28;19932;-44
2022/02/23 06:05:02;;;;;;;;;;;;;;;;;;2098614;28;19931;-52
2022/02/23 06:06:03;;;;;;;;;;;;;;;;;;2096021;28;19936;-52
2022/02/23 06:07:04;;;;;;;;;;;;;;;;;;2090557;28;19925;-51
2022/02/23 06:08:05;;;;;;;;;;;;;;;;;;2090251;28;19925;-43
2022/02/23 06:09:06;;;;;;;;;;;;;;;;;;2092635;28;20050;-44
2022/02/23 06:10:07;;;;;;;;;;;;;;;;;;2098446;28;19925;-44
2022/02/23 06:11:08;;;;;;;;;;;;;;;;;;2098243;28;20369;-44
2022/02/23 06:12:09;;;;;;;;;;;;;;;;;;2094893;28;19967;-44
2022/02/23 06:13:10;;;;;;;;;;;;;;;;;;2098059;28;19939;-52
2022/02/23 06:14:11;;;;;;;;;;;;;;;;;;2097963;28;19972;-55
2022/02/23 06:15:11;;;;;;;;;;;;;;;;;;2096850;28;19924;-44
2022/02/23 06:16:12;;;;;;;;;;;;;;;;;;2098204;28;19924;-44
2022/02/23 06:17:13;;;;;;;;;;;;;;;;;;2097075;28;19939;-44
2022/02/23 06:18:14;;;;;;;;;;;;;;;;;;2097340;28;19931;-44
2022/02/23 06:19:15;;;;;;;;;;;;;;;;;;2098323;28;19973;-44
2022/02/23 06:20:16;;;;;;;;;;;;;;;;;;2096192;28;19990;-44
2022/02/23 06:21:17;;;;;;;;;;;;;;;;;;2097133;28;20411;-51
2022/02/23 06:22:18;;;;;;;;;;;;;;;;;;2098312;28;19971;-51
2022/02/23 06:23:19;;;;;;;;;;;;;;;;;;2094872;28;19932;-44
2022/02/23 06:24:20;;;;;;;;;;;;;;;;;;2090072;28;19936;-44
2022/02/23 06:25:21;;;;;;;;;;;;;;;;;;2089886;28;19925;-44
2022/02/23 06:26:22;;;;;;;;;;;;;;;;;;2095857;28;19975;-44
2022/02/23 06:27:23;;;;;;;;;;;;;;;;;;2098705;28;19975;-44
2022/02/23 06:28:24;;;;;;;;;;;;;;;;;;2097300;28;19947;-44
2022/02/23 06:29:25;;;;;;;;;;;;;;;;;;2096765;28;19986;-53
2022/02/23 06:30:26;;;;;;;;;;;;;;;;;;2098193;28;19968;-51
2022/02/23 06:31:27;;;;;;;;;;;;;;;;;;2095049;28;19925;-52
2022/02/23 06:32:28;;;;;;;;;;;;;;;;;;2096877;28;19925;-42
2022/02/23 06:33:29;;;;;;;;;;;;;;;;;;2098125;28;19978;-43
2022/02/23 06:34:29;;;;;;;;;;;;;;;;;;2094719;28;19925;-43
2022/02/23 06:35:32;;;;;;;;;;;;;;;;;;2098184;28;20420;-43
2022/02/23 06:36:32;;;;;;;;;;;;;;;;;;2098166;28;19924;-43
2022/02/23 06:37:33;;;;;;;;;;;;;;;;;;2095669;28;19978;-43
2022/02/23 06:38:36;;;;;;;;;;;;;;;;;;2098225;28;19924;-43
2022/02/23 06:39:37;;;;;;;;;;;;;;;;;;2097697;28;20362;-43
2022/02/23 06:40:38;;;;;;;;;;;;;;;;;;2096571;28;19925;-43
2022/02/23 06:41:39;;;;;;;;;;;;;;;;;;2098149;28;19925;-43
2022/02/23 06:42:40;;;;;;;;;;;;;;;;;;2096678;28;19986;-52
2022/02/23 06:43:41;;;;;;;;;;;;;;;;;;2095868;28;20358;-43
2022/02/23 06:44:42;;;;;;;;;;;;;;;;;;2098211;28;19924;-43
2022/02/23 06:45:43;;;;;;;;;;;;;;;;;;2096147;28;19932;-43
2022/02/23 06:46:44;;;;;;;;;;;;;;;;;;2097781;28;19932;-43
2022/02/23 06:47:45;;;;;;;;;;;;;;;;;;2098412;28;19936;-43
2022/02/23 06:48:46;;;;;;;;;;;;;;;;;;2095980;28;20405;-43
2022/02/23 06:49:47;;;;;;;;;;;;;;;;;;2098144;28;19925;-43
2022/02/23 06:50:47;;;;;;;;;;;;;;;;;;2098488;28;19924;-51
2022/02/23 06:51:49;;;;;;;;;;;;;;;;;;2096033;28;20076;-52
2022/02/23 06:52:49;;;;;;;;;;;;;;;;;;2098278;28;19924;-44
2022/02/23 06:53:50;;;;;;;;;;;;;;;;;;2097607;28;20378;-43
2022/02/23 06:54:51;;;;;;;;;;;;;;;;;;2096326;28;19932;-44
2022/02/23 06:55:53;;;;;;;;;;;;;;;;;;2097836;28;20329;-44
2022/02/23 06:56:53;;;;;;;;;;;;;;;;;;2095527;28;19994;-44